Aviation Digital Data Service (ADDS)

Output produced by METARs form (1041 UTC 19 June 2019)
found at http://www.aviationweather.gov/metar/data/
 
WBGB 191000Z 27011KT 230V320 9999 SCT012 SCT016 BKN300 29/25 Q1008
TAF WBGB 190500Z 1906/2006 VRB03KT 9999 FEW016 
     TEMPO 1908/1912 33006KT 4000 TSRA FEW015CB SCT016
       
WMKB 191000Z 21007KT 160V260 7000 FEW020 SCT140 BKN270 31/26 Q1006 NOSIG
TAF WMKB 190500Z 1906/2006 23010KT 7000 FEW020 
     TEMPO 1906/1908 5000 HZ 
     BECMG 1913/1915 08005KT FEW024
       
WMKE 191000Z VRB03KT 7000 SCT015 SCT140 BKN260 29/26 Q1007
TAF WMKE 190500Z 1906/2006 16004KT 9999 SCT015 SCT140 BKN220 
     BECMG 1912/1913 VRB03KT
       
TAF AMD WMAP 190607Z 1906/2006 VRB02KT 9999 FEW018 
     TEMPO 1906/1910 4000 TSRA FEW017CB SCT018
       
WBKK 191030Z 26006KT 200V300 9999 FEW014 SCT140 BKN270 30/25 Q1007 NOSIG
TAF WBKK 190500Z 1906/2006 23007KT 9999 FEW014 
     TEMPO 1907/1910 5000 TSRA FEW013 FEW016CB SCT040 
     BECMG 1912/1914 11005KT
       
WMKK 191030Z 15008KT 110V190 9999 FEW018 SCT140 BKN280 30/24 Q1006 NOSIG
TAF WMKK 190500Z 1906/2012 14005KT 9999 FEW018 
     BECMG 1906/1907 17006KT FEW017CB SCT024 
     BECMG 1911/1912 VRB02KT FEW025 
     PROB30 
     TEMPO 1920/2000 4000 TSRA FEW017CB SCT018
       
WMKD 191000Z VRB03KT 9999 -RA FEW017CB SCT024 BKN260 29/26 Q1007 NOSIG
WBGG 191030Z 23003KT 170V290 9999 SCT020 BKN150 26/24 Q1009 NOSIG
TAF WBGG 190500Z 1906/2006 VRB03KT 9999 SCT020 
     TEMPO 1906/1911 35006KT 3000 TSRA FEW015CB
       
WBKL 191000Z VRB02KT 9999 FEW014 BKN300 30/26 Q1008
TAF WBKL 190500Z 1906/2006 35005KT 9999 FEW014 SCT140 BKN300 
     TEMPO 1911/1915 4000 RA SCT010 SCT040
       
WMKL 191000Z VRB03KT 9999 FEW017CB SCT140 BKN270 31/28 Q1007
TAF WMKL 190500Z 1906/2006 04005KT 9999 FEW020 
     PROB40 
     TEMPO 1907/1911 5000 TSRA FEW010 FEW017CB 
     BECMG 1912/1914 VRB03KT FEW026 
     PROB40 
     TEMPO 1920/2000 5000 TSRA FEW010 FEW017CB
       
WMKM 191000Z VRB03KT 9999 FEW023 SCT150 BKN270 30/25 Q1007
TAF WMKM 190500Z 1906/2006 12005KT 9999 FEW020 
     TEMPO 1907/1911 17005KT 4000 TSRA FEW017CB SCT020 
     BECMG 1911/1912 VRB02KT FEW028
       
WBGR 191000Z 30012KT 250V360 9999 SCT014 FEW015CB BKN150 28/25 Q1008
TAF WBGR 190500Z 1906/2006 VRB03KT 9999 FEW016 
     TEMPO 1908/1912 30006KT 4000 TSRA FEW015CB SCT016
       
WMKP 191030Z 22008KT 8000 FEW020 BKN140 BKN270 31/27 Q1006 NOSIG
TAF AMD WMKP 190636Z 1906/2006 22010KT 8000 FEW020 
     TEMPO 1906/1910 6000 -RA FEW020 
     BECMG 1912/1914 VRB03KT FEW025 
     TEMPO 1920/2000 5000 TSRA FEW010 FEW017CB
       
TAF WMBT 190500Z 1906/2006 VRB03KT 9999 SCT018
       
WBKS 191000Z 08003KT 020V140 9999 FEW015 FEW017CB BKN290 30/25 Q1006
TAF WBKS 190500Z 1906/2006 06005KT 9999 FEW016 
     TEMPO 1907/1910 5000 TSRA FEW010 FEW015CB SCT030
       
WBGS 191000Z VRB03KT 9999 -RA FEW006 SCT018 BKN150 24/24 Q1009
TAF WBGS 190500Z 1906/2006 VRB03KT 9999 SCT018 
     TEMPO 1908/1912 25006KT 4000 TSRA FEW015CB
       
WMSA 191000Z 15008KT 100V190 9999 FEW017CB SCT140 BKN280 32/26 Q1007
TAF WMSA 190500Z 1906/2006 13005KT 9999 FEW018 
     TEMPO 1907/1911 16009KT FEW017CB SCT018 
     BECMG 1914/1915 VRB03KT FEW010 
     BECMG 2000/2002 14005KT FEW018
       
WMKA 191000Z 27004KT 240V310 8000 FEW020 SCT140 BKN280 31/28 Q1006
TAF WMKA 190500Z 1906/2006 VRB03KT 9999 FEW020 
     PROB40 
     TEMPO 1907/1911 5000 TSRA FEW010 FEW017CB
       
WMKI 191000Z VRB01KT 9999 SCT018 BKN140 33/26 Q1006
TAF WMKI 190500Z 1906/2006 VRB05KT 9000 FEW020 
     TEMPO 1907/1911 23007KT
       
WMKJ 191000Z VRB02KT 9999 FEW022 BKN280 28/26 Q1007
TAF WMKJ 190500Z 1906/2006 VRB02KT 9999 FEW018 
     TEMPO 1906/1910 17005KT 4000 TSRA FEW010 FEW016CB SCT024 
     BECMG 1912/1913 FEW023
       
WMKC 191000Z 10007KT 060V150 9999 FEW018 SCT140 BKN280 31/25 Q1006
TAF WMKC 190500Z 1906/2006 07006KT 9999 FEW018 BKN280 
     BECMG 1909/1910 26003KT FEW020 
     BECMG 1916/1918 VRB03KT
       
WMKN 191000Z VRB04KT 9999 FEW020 BKN150 29/26 Q1007
TAF WMKN 190500Z 1906/2006 13006KT 9999 FEW018 BKN280 
     BECMG 1912/1913 23005KT FEW022 BKN300 
     BECMG 2000/2002 FEW018
       
WBKW 191000Z 16003KT 120V260 9999 FEW017 BKN300 29/25 Q1007
TAF WBKW 190500Z 1906/2006 17005KT 9999 FEW017